sensor_id;sensor_type;location;lat;lon;timestamp;pressure;altitude;pressure_sealevel;temperature
27715;BMP280;16051;53.024;8.630;2022-08-21T00:01:40;101619.94;;;15.67
27715;BMP280;16051;53.024;8.630;2022-08-21T00:05:46;101615.06;;;15.62
27715;BMP280;16051;53.024;8.630;2022-08-21T00:09:50;101606.56;;;15.51
27715;BMP280;16051;53.024;8.630;2022-08-21T00:14:34;101608.34;;;15.54
27715;BMP280;16051;53.024;8.630;2022-08-21T00:18:38;101597.91;;;15.49
27715;BMP280;16051;53.024;8.630;2022-08-21T00:22:42;101599.72;;;15.38
27715;BMP280;16051;53.024;8.630;2022-08-21T00:26:44;101597.63;;;15.33
27715;BMP280;16051;53.024;8.630;2022-08-21T00:30:47;101595.06;;;15.29
27715;BMP280;16051;53.024;8.630;2022-08-21T00:35:12;101599.53;;;15.26
27715;BMP280;16051;53.024;8.630;2022-08-21T00:39:14;101596.50;;;15.24
27715;BMP280;16051;53.024;8.630;2022-08-21T00:43:20;101594.38;;;15.19
27715;BMP280;16051;53.024;8.630;2022-08-21T00:47:23;101593.53;;;15.13
27715;BMP280;16051;53.024;8.630;2022-08-21T00:51:37;101594.50;;;15.10
27715;BMP280;16051;53.024;8.630;2022-08-21T00:55:49;101591.81;;;15.01
27715;BMP280;16051;53.024;8.630;2022-08-21T00:59:56;101599.31;;;14.95
27715;BMP280;16051;53.024;8.630;2022-08-21T01:04:00;101592.03;;;14.83
27715;BMP280;16051;53.024;8.630;2022-08-21T01:08:05;101597.50;;;14.77
27715;BMP280;16051;53.024;8.630;2022-08-21T01:12:09;101591.28;;;14.68
27715;BMP280;16051;53.024;8.630;2022-08-21T01:16:16;101586.38;;;14.63
27715;BMP280;16051;53.024;8.630;2022-08-21T01:20:20;101589.53;;;14.56
27715;BMP280;16051;53.024;8.630;2022-08-21T01:24:24;101590.78;;;14.55
27715;BMP280;16051;53.024;8.630;2022-08-21T01:28:28;101605.03;;;14.48
27715;BMP280;16051;53.024;8.630;2022-08-21T01:32:33;101600.25;;;14.48
27715;BMP280;16051;53.024;8.630;2022-08-21T01:36:35;101604.56;;;14.49
27715;BMP280;16051;53.024;8.630;2022-08-21T01:40:38;101600.63;;;14.41
27715;BMP280;16051;53.024;8.630;2022-08-21T01:44:41;101599.00;;;14.35
27715;BMP280;16051;53.024;8.630;2022-08-21T01:48:44;101599.16;;;14.31
27715;BMP280;16051;53.024;8.630;2022-08-21T01:52:47;101590.22;;;14.27
27715;BMP280;16051;53.024;8.630;2022-08-21T01:56:53;101601.81;;;14.25
27715;BMP280;16051;53.024;8.630;2022-08-21T02:00:56;101598.94;;;14.20
27715;BMP280;16051;53.024;8.630;2022-08-21T02:04:58;101599.56;;;14.15
27715;BMP280;16051;53.024;8.630;2022-08-21T02:09:00;101595.16;;;14.08
27715;BMP280;16051;53.024;8.630;2022-08-21T02:13:04;101594.69;;;14.10
27715;BMP280;16051;53.024;8.630;2022-08-21T02:17:07;101587.00;;;14.05
27715;BMP280;16051;53.024;8.630;2022-08-21T02:21:10;101586.72;;;14.03
27715;BMP280;16051;53.024;8.630;2022-08-21T02:25:12;101586.91;;;13.99
27715;BMP280;16051;53.024;8.630;2022-08-21T02:29:16;101573.97;;;13.96
27715;BMP280;16051;53.024;8.630;2022-08-21T02:33:18;101568.28;;;13.91
27715;BMP280;16051;53.024;8.630;2022-08-21T02:37:22;101573.84;;;13.91
27715;BMP280;16051;53.024;8.630;2022-08-21T02:41:24;101563.00;;;13.93
27715;BMP280;16051;53.024;8.630;2022-08-21T02:45:29;101563.50;;;13.91
27715;BMP280;16051;53.024;8.630;2022-08-21T02:49:31;101558.53;;;13.95
27715;BMP280;16051;53.024;8.630;2022-08-21T02:53:34;101563.44;;;14.00
27715;BMP280;16051;53.024;8.630;2022-08-21T02:57:36;101558.59;;;14.10
27715;BMP280;16051;53.024;8.630;2022-08-21T03:01:40;101557.13;;;14.14
27715;BMP280;16051;53.024;8.630;2022-08-21T03:05:43;101548.72;;;14.09
27715;BMP280;16051;53.024;8.630;2022-08-21T03:09:46;101542.75;;;14.01
27715;BMP280;16051;53.024;8.630;2022-08-21T03:13:48;101541.28;;;13.91
27715;BMP280;16051;53.024;8.630;2022-08-21T03:17:52;101547.03;;;13.88
27715;BMP280;16051;53.024;8.630;2022-08-21T03:21:55;101539.16;;;13.86
27715;BMP280;16051;53.024;8.630;2022-08-21T03:26:53;101544.13;;;13.82
27715;BMP280;16051;53.024;8.630;2022-08-21T03:30:55;101538.47;;;13.76
27715;BMP280;16051;53.024;8.630;2022-08-21T03:34:59;101540.19;;;13.74
27715;BMP280;16051;53.024;8.630;2022-08-21T03:39:01;101542.97;;;13.74
27715;BMP280;16051;53.024;8.630;2022-08-21T03:43:12;101539.13;;;13.71
27715;BMP280;16051;53.024;8.630;2022-08-21T03:47:14;101533.88;;;13.73
27715;BMP280;16051;53.024;8.630;2022-08-21T03:51:18;101532.47;;;13.78
27715;BMP280;16051;53.024;8.630;2022-08-21T03:55:20;101534.16;;;13.75
27715;BMP280;16051;53.024;8.630;2022-08-21T03:59:23;101533.97;;;13.79
27715;BMP280;16051;53.024;8.630;2022-08-21T04:03:37;101535.50;;;13.80
27715;BMP280;16051;53.024;8.630;2022-08-21T04:07:40;101545.38;;;13.81
27715;BMP280;16051;53.024;8.630;2022-08-21T04:11:43;101554.31;;;13.85
27715;BMP280;16051;53.024;8.630;2022-08-21T04:15:46;101544.31;;;13.78
27715;BMP280;16051;53.024;8.630;2022-08-21T04:19:48;101561.91;;;13.75
27715;BMP280;16051;53.024;8.630;2022-08-21T04:23:54;101552.88;;;13.66
27715;BMP280;16051;53.024;8.630;2022-08-21T04:27:56;101553.34;;;13.64
27715;BMP280;16051;53.024;8.630;2022-08-21T04:31:59;101548.38;;;13.68
27715;BMP280;16051;53.024;8.630;2022-08-21T04:36:01;101549.63;;;13.67
27715;BMP280;16051;53.024;8.630;2022-08-21T04:40:08;101554.13;;;13.65
27715;BMP280;16051;53.024;8.630;2022-08-21T04:44:11;101568.31;;;13.67
27715;BMP280;16051;53.024;8.630;2022-08-21T04:48:18;101565.72;;;13.63
27715;BMP280;16051;53.024;8.630;2022-08-21T04:52:27;101558.63;;;13.62
27715;BMP280;16051;53.024;8.630;2022-08-21T04:56:42;101563.56;;;13.58
27715;BMP280;16051;53.024;8.630;2022-08-21T05:00:47;101568.84;;;13.56
27715;BMP280;16051;53.024;8.630;2022-08-21T05:04:52;101566.34;;;13.58
27715;BMP280;16051;53.024;8.630;2022-08-21T05:09:06;101573.84;;;13.67
27715;BMP280;16051;53.024;8.630;2022-08-21T05:13:12;101579.53;;;13.72
27715;BMP280;16051;53.024;8.630;2022-08-21T05:17:15;101568.88;;;13.71
27715;BMP280;16051;53.024;8.630;2022-08-21T05:21:17;101581.16;;;13.79
27715;BMP280;16051;53.024;8.630;2022-08-21T05:25:27;101579.47;;;13.82
27715;BMP280;16051;53.024;8.630;2022-08-21T05:29:31;101579.84;;;13.89
27715;BMP280;16051;53.024;8.630;2022-08-21T05:33:33;101579.03;;;13.98
27715;BMP280;16051;53.024;8.630;2022-08-21T05:37:35;101582.88;;;14.00
27715;BMP280;16051;53.024;8.630;2022-08-21T05:41:37;101574.53;;;14.00
27715;BMP280;16051;53.024;8.630;2022-08-21T05:45:58;101577.72;;;14.08
27715;BMP280;16051;53.024;8.630;2022-08-21T05:50:00;101581.66;;;14.16
27715;BMP280;16051;53.024;8.630;2022-08-21T05:54:03;101582.06;;;14.23
27715;BMP280;16051;53.024;8.630;2022-08-21T05:58:05;101585.09;;;14.35
27715;BMP280;16051;53.024;8.630;2022-08-21T06:02:08;101574.66;;;14.44
27715;BMP280;16051;53.024;8.630;2022-08-21T06:06:12;101573.72;;;14.62
27715;BMP280;16051;53.024;8.630;2022-08-21T06:10:14;101569.41;;;14.75
27715;BMP280;16051;53.024;8.630;2022-08-21T06:14:16;101571.03;;;14.97
27715;BMP280;16051;53.024;8.630;2022-08-21T06:18:20;101572.25;;;15.10
27715;BMP280;16051;53.024;8.630;2022-08-21T06:22:29;101569.91;;;15.23
27715;BMP280;16051;53.024;8.630;2022-08-21T06:26:31;101575.25;;;15.42
27715;BMP280;16051;53.024;8.630;2022-08-21T06:30:35;101573.72;;;15.55
27715;BMP280;16051;53.024;8.630;2022-08-21T06:34:41;101575.94;;;15.71
27715;BMP280;16051;53.024;8.630;2022-08-21T06:38:43;101569.53;;;15.86
27715;BMP280;16051;53.024;8.630;2022-08-21T06:42:48;101572.03;;;16.04
27715;BMP280;16051;53.024;8.630;2022-08-21T06:46:50;101572.44;;;16.17
27715;BMP280;16051;53.024;8.630;2022-08-21T06:50:53;101578.13;;;16.28
27715;BMP280;16051;53.024;8.630;2022-08-21T06:54:56;101572.66;;;16.39
27715;BMP280;16051;53.024;8.630;2022-08-21T06:58:58;101567.72;;;16.49
27715;BMP280;16051;53.024;8.630;2022-08-21T07:03:01;101568.38;;;16.64
27715;BMP280;16051;53.024;8.630;2022-08-21T07:07:23;101562.19;;;16.80
27715;BMP280;16051;53.024;8.630;2022-08-21T07:11:25;101557.94;;;16.85
27715;BMP280;16051;53.024;8.630;2022-08-21T07:15:29;101565.19;;;17.08
27715;BMP280;16051;53.024;8.630;2022-08-21T07:19:31;101560.22;;;17.23
27715;BMP280;16051;53.024;8.630;2022-08-21T07:23:39;101562.69;;;17.47
27715;BMP280;16051;53.024;8.630;2022-08-21T07:27:41;101560.00;;;17.69
27715;BMP280;16051;53.024;8.630;2022-08-21T07:31:54;101563.19;;;17.93
27715;BMP280;16051;53.024;8.630;2022-08-21T07:35:56;101567.06;;;18.18
27715;BMP280;16051;53.024;8.630;2022-08-21T07:40:00;101560.22;;;18.41
27715;BMP280;16051;53.024;8.630;2022-08-21T07:44:02;101550.88;;;18.78
27715;BMP280;16051;53.024;8.630;2022-08-21T07:48:05;101559.28;;;19.11
27715;BMP280;16051;53.024;8.630;2022-08-21T07:52:07;101555.94;;;19.35
27715;BMP280;16051;53.024;8.630;2022-08-21T07:56:10;101554.63;;;19.63
27715;BMP280;16051;53.024;8.630;2022-08-21T08:00:17;101556.06;;;19.76
27715;BMP280;16051;53.024;8.630;2022-08-21T08:04:20;101557.06;;;19.84
27715;BMP280;16051;53.024;8.630;2022-08-21T08:08:24;101563.13;;;19.99
27715;BMP280;16051;53.024;8.630;2022-08-21T08:12:28;101558.25;;;20.05
27715;BMP280;16051;53.024;8.630;2022-08-21T08:16:30;101555.94;;;20.09
27715;BMP280;16051;53.024;8.630;2022-08-21T08:20:33;101565.59;;;20.13
27715;BMP280;16051;53.024;8.630;2022-08-21T08:24:47;101559.94;;;20.19
27715;BMP280;16051;53.024;8.630;2022-08-21T08:28:50;101559.94;;;20.25
27715;BMP280;16051;53.024;8.630;2022-08-21T08:33:04;101550.50;;;20.28
27715;BMP280;16051;53.024;8.630;2022-08-21T08:37:08;101548.41;;;20.34
27715;BMP280;16051;53.024;8.630;2022-08-21T08:41:14;101551.97;;;20.34
27715;BMP280;16051;53.024;8.630;2022-08-21T08:45:22;101554.28;;;20.36
27715;BMP280;16051;53.024;8.630;2022-08-21T08:49:42;101548.63;;;20.41
27715;BMP280;16051;53.024;8.630;2022-08-21T08:53:52;101555.13;;;20.60
27715;BMP280;16051;53.024;8.630;2022-08-21T08:57:57;101551.13;;;20.80
27715;BMP280;16051;53.024;8.630;2022-08-21T09:02:00;101546.94;;;20.92
27715;BMP280;16051;53.024;8.630;2022-08-21T09:06:35;101547.84;;;21.06
27715;BMP280;16051;53.024;8.630;2022-08-21T09:10:51;101546.34;;;21.05
27715;BMP280;16051;53.024;8.630;2022-08-21T09:15:12;101549.56;;;21.15
27715;BMP280;16051;53.024;8.630;2022-08-21T09:19:37;101538.34;;;21.09
27715;BMP280;16051;53.024;8.630;2022-08-21T09:24:17;101541.69;;;21.07
27715;BMP280;16051;53.024;8.630;2022-08-21T09:28:34;101543.44;;;21.16
27715;BMP280;16051;53.024;8.630;2022-08-21T09:33:04;101535.06;;;21.35
27715;BMP280;16051;53.024;8.630;2022-08-21T09:37:18;101541.19;;;21.57
27715;BMP280;16051;53.024;8.630;2022-08-21T09:41:29;101530.41;;;21.62
27715;BMP280;16051;53.024;8.630;2022-08-21T09:45:48;101533.72;;;21.84
27715;BMP280;16051;53.024;8.630;2022-08-21T09:49:52;101526.44;;;21.94
27715;BMP280;16051;53.024;8.630;2022-08-21T09:54:09;101520.66;;;22.05
27715;BMP280;16051;53.024;8.630;2022-08-21T09:58:13;101536.00;;;22.04
27715;BMP280;16051;53.024;8.630;2022-08-21T10:02:31;101529.41;;;22.02
27715;BMP280;16051;53.024;8.630;2022-08-21T10:06:33;101523.03;;;22.20
27715;BMP280;16051;53.024;8.630;2022-08-21T10:10:37;101513.19;;;22.27
27715;BMP280;16051;53.024;8.630;2022-08-21T10:14:50;101514.06;;;22.53
27715;BMP280;16051;53.024;8.630;2022-08-21T10:24:22;101518.97;;;23.64
27715;BMP280;16051;53.024;8.630;2022-08-21T10:28:39;101506.28;;;24.17
27715;BMP280;16051;53.024;8.630;2022-08-21T10:33:06;101506.38;;;24.25
27715;BMP280;16051;53.024;8.630;2022-08-21T10:37:27;101513.91;;;24.84
27715;BMP280;16051;53.024;8.630;2022-08-21T10:41:57;101515.25;;;25.47
27715;BMP280;16051;53.024;8.630;2022-08-21T10:46:14;101511.06;;;25.69
27715;BMP280;16051;53.024;8.630;2022-08-21T10:50:30;101507.81;;;25.29
27715;BMP280;16051;53.024;8.630;2022-08-21T10:54:45;101509.50;;;25.25
27715;BMP280;16051;53.024;8.630;2022-08-21T10:59:24;101518.94;;;25.27
27715;BMP280;16051;53.024;8.630;2022-08-21T11:03:44;101509.75;;;25.06
27715;BMP280;16051;53.024;8.630;2022-08-21T11:07:52;101505.63;;;24.86
27715;BMP280;16051;53.024;8.630;2022-08-21T11:12:06;101513.25;;;25.56
27715;BMP280;16051;53.024;8.630;2022-08-21T11:16:25;101509.53;;;26.12
27715;BMP280;16051;53.024;8.630;2022-08-21T11:20:43;101506.78;;;26.80
27715;BMP280;16051;53.024;8.630;2022-08-21T11:25:05;101516.63;;;26.94
27715;BMP280;16051;53.024;8.630;2022-08-21T11:29:23;101514.56;;;26.87
27715;BMP280;16051;53.024;8.630;2022-08-21T11:33:44;101510.91;;;27.17
27715;BMP280;16051;53.024;8.630;2022-08-21T11:38:04;101511.31;;;27.06
27715;BMP280;16051;53.024;8.630;2022-08-21T11:42:24;101501.66;;;26.78
27715;BMP280;16051;53.024;8.630;2022-08-21T11:46:40;101507.19;;;27.69
27715;BMP280;16051;53.024;8.630;2022-08-21T11:50:49;101509.91;;;28.32
27715;BMP280;16051;53.024;8.630;2022-08-21T11:54:59;101516.47;;;28.42
27715;BMP280;16051;53.024;8.630;2022-08-21T11:59:11;101508.41;;;28.80
27715;BMP280;16051;53.024;8.630;2022-08-21T12:03:27;101516.66;;;28.12
27715;BMP280;16051;53.024;8.630;2022-08-21T12:07:34;101516.03;;;26.65
27715;BMP280;16051;53.024;8.630;2022-08-21T12:11:50;101507.84;;;26.24
27715;BMP280;16051;53.024;8.630;2022-08-21T12:16:06;101502.28;;;25.88
27715;BMP280;16051;53.024;8.630;2022-08-21T12:20:32;101499.97;;;26.53
27715;BMP280;16051;53.024;8.630;2022-08-21T12:24:39;101506.03;;;26.64
27715;BMP280;16051;53.024;8.630;2022-08-21T12:28:43;101508.00;;;27.55
27715;BMP280;16051;53.024;8.630;2022-08-21T12:32:56;101504.94;;;28.08
27715;BMP280;16051;53.024;8.630;2022-08-21T12:37:04;101498.28;;;28.13
27715;BMP280;16051;53.024;8.630;2022-08-21T12:41:17;101493.38;;;26.73
27715;BMP280;16051;53.024;8.630;2022-08-21T12:45:30;101496.19;;;26.50
27715;BMP280;16051;53.024;8.630;2022-08-21T12:49:37;101497.53;;;26.57
27715;BMP280;16051;53.024;8.630;2022-08-21T12:53:53;101499.22;;;26.67
27715;BMP280;16051;53.024;8.630;2022-08-21T12:58:45;101497.09;;;27.21
27715;BMP280;16051;53.024;8.630;2022-08-21T13:02:53;101496.97;;;26.96
27715;BMP280;16051;53.024;8.630;2022-08-21T13:07:00;101498.72;;;27.62
27715;BMP280;16051;53.024;8.630;2022-08-21T13:11:16;101478.66;;;27.67
27715;BMP280;16051;53.024;8.630;2022-08-21T13:15:40;101479.66;;;28.52
27715;BMP280;16051;53.024;8.630;2022-08-21T13:20:24;101486.09;;;28.94
27715;BMP280;16051;53.024;8.630;2022-08-21T13:24:37;101484.28;;;29.06
27715;BMP280;16051;53.024;8.630;2022-08-21T13:28:41;101472.16;;;29.23
27715;BMP280;16051;53.024;8.630;2022-08-21T13:32:48;101473.38;;;29.37
27715;BMP280;16051;53.024;8.630;2022-08-21T13:36:57;101483.31;;;29.28
27715;BMP280;16051;53.024;8.630;2022-08-21T13:41:05;101476.78;;;29.18
27715;BMP280;16051;53.024;8.630;2022-08-21T13:45:23;101473.25;;;28.93
27715;BMP280;16051;53.024;8.630;2022-08-21T13:49:34;101463.56;;;29.13
27715;BMP280;16051;53.024;8.630;2022-08-21T13:53:47;101471.66;;;29.17
27715;BMP280;16051;53.024;8.630;2022-08-21T13:58:00;101466.41;;;29.13
27715;BMP280;16051;53.024;8.630;2022-08-21T14:02:15;101471.25;;;29.20
27715;BMP280;16051;53.024;8.630;2022-08-21T14:06:20;101472.34;;;29.25
27715;BMP280;16051;53.024;8.630;2022-08-21T14:10:56;101476.88;;;29.28
27715;BMP280;16051;53.024;8.630;2022-08-21T14:15:03;101470.25;;;29.25
27715;BMP280;16051;53.024;8.630;2022-08-21T14:19:18;101467.50;;;29.01
27715;BMP280;16051;53.024;8.630;2022-08-21T14:23:25;101463.31;;;29.19
27715;BMP280;16051;53.024;8.630;2022-08-21T14:27:30;101471.75;;;29.09
27715;BMP280;16051;53.024;8.630;2022-08-21T14:31:32;101479.69;;;28.94
27715;BMP280;16051;53.024;8.630;2022-08-21T14:35:35;101473.72;;;28.82
27715;BMP280;16051;53.024;8.630;2022-08-21T14:39:37;101482.59;;;28.86
27715;BMP280;16051;53.024;8.630;2022-08-21T14:43:50;101476.09;;;28.93
27715;BMP280;16051;53.024;8.630;2022-08-21T14:48:04;101479.22;;;28.80
27715;BMP280;16051;53.024;8.630;2022-08-21T14:52:06;101470.31;;;28.59
27715;BMP280;16051;53.024;8.630;2022-08-21T14:56:21;101483.13;;;28.43
27715;BMP280;16051;53.024;8.630;2022-08-21T15:00:25;101479.59;;;28.10
27715;BMP280;16051;53.024;8.630;2022-08-21T15:04:28;101479.34;;;27.75
27715;BMP280;16051;53.024;8.630;2022-08-21T15:08:30;101469.69;;;27.78
27715;BMP280;16051;53.024;8.630;2022-08-21T15:12:33;101472.25;;;27.99
27715;BMP280;16051;53.024;8.630;2022-08-21T15:16:37;101471.91;;;27.87
27715;BMP280;16051;53.024;8.630;2022-08-21T15:20:40;101469.56;;;27.69
27715;BMP280;16051;53.024;8.630;2022-08-21T15:24:50;101468.13;;;27.53
27715;BMP280;16051;53.024;8.630;2022-08-21T15:28:52;101469.47;;;27.36
27715;BMP280;16051;53.024;8.630;2022-08-21T15:32:56;101457.22;;;27.26
27715;BMP280;16051;53.024;8.630;2022-08-21T15:36:58;101457.19;;;27.42
27715;BMP280;16051;53.024;8.630;2022-08-21T15:41:04;101463.41;;;27.40
27715;BMP280;16051;53.024;8.630;2022-08-21T15:45:11;101457.59;;;27.30
27715;BMP280;16051;53.024;8.630;2022-08-21T15:49:14;101462.69;;;27.24
27715;BMP280;16051;53.024;8.630;2022-08-21T15:53:21;101462.53;;;27.15
27715;BMP280;16051;53.024;8.630;2022-08-21T15:57:25;101456.34;;;27.09
27715;BMP280;16051;53.024;8.630;2022-08-21T16:01:36;101469.78;;;26.93
27715;BMP280;16051;53.024;8.630;2022-08-21T16:05:40;101467.50;;;26.91
27715;BMP280;16051;53.024;8.630;2022-08-21T16:09:43;101468.63;;;26.96
27715;BMP280;16051;53.024;8.630;2022-08-21T16:13:49;101464.66;;;26.91
27715;BMP280;16051;53.024;8.630;2022-08-21T16:17:52;101459.00;;;26.76
27715;BMP280;16051;53.024;8.630;2022-08-21T16:21:57;101458.63;;;26.72
27715;BMP280;16051;53.024;8.630;2022-08-21T16:25:59;101452.22;;;26.64
27715;BMP280;16051;53.024;8.630;2022-08-21T16:30:04;101459.00;;;26.46
27715;BMP280;16051;53.024;8.630;2022-08-21T16:34:10;101459.19;;;26.33
27715;BMP280;16051;53.024;8.630;2022-08-21T16:38:16;101460.81;;;26.06
27715;BMP280;16051;53.024;8.630;2022-08-21T16:42:23;101457.41;;;25.92
27715;BMP280;16051;53.024;8.630;2022-08-21T16:46:37;101459.75;;;25.65
27715;BMP280;16051;53.024;8.630;2022-08-21T16:50:40;101463.53;;;25.60
27715;BMP280;16051;53.024;8.630;2022-08-21T16:54:44;101470.75;;;25.40
27715;BMP280;16051;53.024;8.630;2022-08-21T16:58:49;101464.66;;;25.57
27715;BMP280;16051;53.024;8.630;2022-08-21T17:02:55;101463.44;;;25.45
27715;BMP280;16051;53.024;8.630;2022-08-21T17:06:58;101469.84;;;25.45
27715;BMP280;16051;53.024;8.630;2022-08-21T17:11:03;101470.81;;;25.20
27715;BMP280;16051;53.024;8.630;2022-08-21T17:15:19;101467.78;;;25.10
27715;BMP280;16051;53.024;8.630;2022-08-21T17:19:22;101477.03;;;24.90
27715;BMP280;16051;53.024;8.630;2022-08-21T17:23:25;101474.22;;;24.69
27715;BMP280;16051;53.024;8.630;2022-08-21T17:27:29;101486.22;;;24.41
27715;BMP280;16051;53.024;8.630;2022-08-21T17:31:31;101478.06;;;24.17
27715;BMP280;16051;53.024;8.630;2022-08-21T17:35:33;101489.94;;;24.02
27715;BMP280;16051;53.024;8.630;2022-08-21T17:39:35;101488.19;;;23.66
27715;BMP280;16051;53.024;8.630;2022-08-21T17:43:40;101498.06;;;23.59
27715;BMP280;16051;53.024;8.630;2022-08-21T17:47:45;101503.38;;;23.49
27715;BMP280;16051;53.024;8.630;2022-08-21T17:51:47;101513.13;;;23.35
27715;BMP280;16051;53.024;8.630;2022-08-21T17:55:50;101516.03;;;23.17
27715;BMP280;16051;53.024;8.630;2022-08-21T17:59:56;101525.25;;;23.04
27715;BMP280;16051;53.024;8.630;2022-08-21T18:03:58;101521.94;;;22.87
27715;BMP280;16051;53.024;8.630;2022-08-21T18:08:00;101521.72;;;22.72
27715;BMP280;16051;53.024;8.630;2022-08-21T18:12:03;101523.78;;;22.71
27715;BMP280;16051;53.024;8.630;2022-08-21T18:16:08;101534.13;;;22.63
27715;BMP280;16051;53.024;8.630;2022-08-21T18:20:14;101523.03;;;22.52
27715;BMP280;16051;53.024;8.630;2022-08-21T18:24:35;101525.25;;;22.40
27715;BMP280;16051;53.024;8.630;2022-08-21T18:28:37;101531.19;;;22.37
27715;BMP280;16051;53.024;8.630;2022-08-21T18:32:42;101539.19;;;22.33
27715;BMP280;16051;53.024;8.630;2022-08-21T18:36:45;101540.34;;;22.24
27715;BMP280;16051;53.024;8.630;2022-08-21T18:40:51;101543.84;;;22.12
27715;BMP280;16051;53.024;8.630;2022-08-21T18:45:00;101552.53;;;22.14
27715;BMP280;16051;53.024;8.630;2022-08-21T18:49:18;101556.00;;;22.01
27715;BMP280;16051;53.024;8.630;2022-08-21T18:53:20;101566.13;;;21.91
27715;BMP280;16051;53.024;8.630;2022-08-21T18:57:34;101558.66;;;21.93
27715;BMP280;16051;53.024;8.630;2022-08-21T19:01:38;101562.03;;;21.92
27715;BMP280;16051;53.024;8.630;2022-08-21T19:05:42;101562.88;;;21.81
27715;BMP280;16051;53.024;8.630;2022-08-21T19:10:17;101567.81;;;21.75
27715;BMP280;16051;53.024;8.630;2022-08-21T19:14:19;101581.41;;;21.71
27715;BMP280;16051;53.024;8.630;2022-08-21T19:18:26;101583.91;;;21.75
27715;BMP280;16051;53.024;8.630;2022-08-21T19:22:37;101581.53;;;21.60
27715;BMP280;16051;53.024;8.630;2022-08-21T19:26:39;101581.78;;;21.62
27715;BMP280;16051;53.024;8.630;2022-08-21T19:30:47;101587.38;;;21.62
27715;BMP280;16051;53.024;8.630;2022-08-21T19:35:04;101588.50;;;21.53
27715;BMP280;16051;53.024;8.630;2022-08-21T19:39:08;101588.50;;;21.53
27715;BMP280;16051;53.024;8.630;2022-08-21T19:43:13;101582.13;;;21.53
27715;BMP280;16051;53.024;8.630;2022-08-21T19:47:17;101580.13;;;21.48
27715;BMP280;16051;53.024;8.630;2022-08-21T19:51:21;101593.94;;;21.46
27715;BMP280;16051;53.024;8.630;2022-08-21T19:55:25;101597.63;;;21.35
27715;BMP280;16051;53.024;8.630;2022-08-21T19:59:45;101602.06;;;21.25
27715;BMP280;16051;53.024;8.630;2022-08-21T20:03:49;101602.53;;;21.29
27715;BMP280;16051;53.024;8.630;2022-08-21T20:07:51;101610.13;;;21.34
27715;BMP280;16051;53.024;8.630;2022-08-21T20:11:57;101611.78;;;21.24
27715;BMP280;16051;53.024;8.630;2022-08-21T20:16:07;101611.66;;;21.11
27715;BMP280;16051;53.024;8.630;2022-08-21T20:20:12;101604.75;;;21.12
27715;BMP280;16051;53.024;8.630;2022-08-21T20:24:19;101610.66;;;21.03
27715;BMP280;16051;53.024;8.630;2022-08-21T20:28:35;101592.25;;;21.07
27715;BMP280;16051;53.024;8.630;2022-08-21T20:32:37;101610.91;;;21.05
27715;BMP280;16051;53.024;8.630;2022-08-21T20:36:40;101600.06;;;20.90
27715;BMP280;16051;53.024;8.630;2022-08-21T20:40:52;101598.75;;;20.91
27715;BMP280;16051;53.024;8.630;2022-08-21T20:44:56;101604.50;;;20.75
27715;BMP280;16051;53.024;8.630;2022-08-21T20:48:58;101599.75;;;20.64
27715;BMP280;16051;53.024;8.630;2022-08-21T20:53:07;101599.53;;;20.56
27715;BMP280;16051;53.024;8.630;2022-08-21T20:57:18;101595.53;;;20.46
27715;BMP280;16051;53.024;8.630;2022-08-21T21:01:24;101598.53;;;20.54
27715;BMP280;16051;53.024;8.630;2022-08-21T21:05:32;101600.91;;;20.39
27715;BMP280;16051;53.024;8.630;2022-08-21T21:09:46;101604.03;;;20.30
27715;BMP280;16051;53.024;8.630;2022-08-21T21:13:54;101603.78;;;20.22
27715;BMP280;16051;53.024;8.630;2022-08-21T21:18:06;101613.25;;;20.13
27715;BMP280;16051;53.024;8.630;2022-08-21T21:22:13;101618.38;;;20.09
27715;BMP280;16051;53.024;8.630;2022-08-21T21:26:25;101618.16;;;20.07
27715;BMP280;16051;53.024;8.630;2022-08-21T21:30:34;101608.69;;;20.05
27715;BMP280;16051;53.024;8.630;2022-08-21T21:34:42;101614.59;;;20.01
27715;BMP280;16051;53.024;8.630;2022-08-21T21:39:19;101610.28;;;19.95
27715;BMP280;16051;53.024;8.630;2022-08-21T21:43:45;101628.88;;;19.98
27715;BMP280;16051;53.024;8.630;2022-08-21T21:48:09;101631.94;;;19.94
27715;BMP280;16051;53.024;8.630;2022-08-21T21:52:38;101622.25;;;19.90
27715;BMP280;16051;53.024;8.630;2022-08-21T21:56:55;101626.38;;;19.83
27715;BMP280;16051;53.024;8.630;2022-08-21T22:01:08;101634.53;;;19.81
27715;BMP280;16051;53.024;8.630;2022-08-21T22:05:32;101632.78;;;19.78
27715;BMP280;16051;53.024;8.630;2022-08-21T22:09:55;101634.28;;;19.79
27715;BMP280;16051;53.024;8.630;2022-08-21T22:14:05;101634.03;;;19.77
27715;BMP280;16051;53.024;8.630;2022-08-21T22:18:15;101634.31;;;19.74
27715;BMP280;16051;53.024;8.630;2022-08-21T22:22:22;101628.97;;;19.70
27715;BMP280;16051;53.024;8.630;2022-08-21T22:26:38;101632.00;;;19.72
27715;BMP280;16051;53.024;8.630;2022-08-21T22:30:45;101634.03;;;19.77
27715;BMP280;16051;53.024;8.630;2022-08-21T22:35:02;101632.25;;;19.80
27715;BMP280;16051;53.024;8.630;2022-08-21T22:39:12;101637.63;;;19.78
27715;BMP280;16051;53.024;8.630;2022-08-21T22:43:19;101634.03;;;19.72
27715;BMP280;16051;53.024;8.630;2022-08-21T22:47:25;101636.06;;;19.77
27715;BMP280;16051;53.024;8.630;2022-08-21T22:51:36;101626.13;;;19.76
27715;BMP280;16051;53.024;8.630;2022-08-21T22:55:43;101630.97;;;19.75
27715;BMP280;16051;53.024;8.630;2022-08-21T22:59:57;101627.94;;;19.73
27715;BMP280;16051;53.024;8.630;2022-08-21T23:04:17;101645.25;;;19.72
27715;BMP280;16051;53.024;8.630;2022-08-21T23:08:36;101634.03;;;19.72
27715;BMP280;16051;53.024;8.630;2022-08-21T23:12:38;101633.03;;;19.69
27715;BMP280;16051;53.024;8.630;2022-08-21T23:16:50;101634.31;;;19.68
27715;BMP280;16051;53.024;8.630;2022-08-21T23:21:03;101630.25;;;19.63
27715;BMP280;16051;53.024;8.630;2022-08-21T23:25:31;101627.97;;;19.56
27715;BMP280;16051;53.024;8.630;2022-08-21T23:29:45;101631.28;;;19.55
27715;BMP280;16051;53.024;8.630;2022-08-21T23:34:21;101628.25;;;19.53
27715;BMP280;16051;53.024;8.630;2022-08-21T23:38:45;101629.25;;;19.50